• Join FlightAware (Why Join?)
  • Login
  • US Flag 
10:09AM EDT


 

Airport Tracker/Info


-or-


 

Live Flight TrackerFlight Track Log ✈ SKW5631 ✈ 30-Apr-2013 ✈ KDFW - KSFO

Flight Track Log - Related Links

Times and Time Zones

All times are in EDT time to prevent confusion due to time zone crossing. See the SKW5631 flight status page for this flight to view local times or setup timezone preferences in your user account.

Time Position Orientation Groundspeed Altitude Reporting Facility
EDT Latitude Longitude Course Direction KTS MPH feet Rate Location/Type
03:09PM 32.8833 -97.0500 294° West 147 169 1,300  Level Dallas / Fort Worth TRACON
03:10PM 32.8500 -97.0500 180° South 192 221 2,500 1,740 Climbing Dallas / Fort Worth TRACON
03:11PM 32.8000 -97.0667 196° South 257 296 4,100 2,100 Climbing Dallas / Fort Worth TRACON
03:12PM 32.7667 -97.1500 245° Southwest 280 322 6,600 2,400 Climbing Dallas / Fort Worth TRACON
03:13PM 32.8520 -97.4346 293° West  Level FlightAware Approximate
03:14PM 32.8974 -97.5595 293° West  Level FlightAware Approximate
03:14PM 32.7978 -97.3022 284° West 403 464 10,700  Level Fort Worth Center
03:15PM 32.9474 -97.6819 294° West  Level FlightAware Approximate
03:15PM 32.8314 -97.3861 296° West 333 383 12,100  Level Fort Worth Center
03:16PM 32.8792 -97.4950 298° West 324 373 14,400 2,040 Climbing Fort Worth Center
03:17PM 32.9189 -97.5892 297° West 337 388 16,200 1,800 Climbing Fort Worth Center
03:18PM 32.9625 -97.6933 297° West 348 400 18,000 2,040 Climbing Fort Worth Center
03:19PM 32.9933 -97.8197 286° West 365 420 20,300 1,800 Climbing Fort Worth Center
03:20PM 33.0117 -97.9336 281° West 376 433 21,700 1,620 Climbing Fort Worth Center
03:21PM 33.0319 -98.0675 280° West 383 441 23,600 1,500 Climbing Fort Worth Center
03:22PM 33.0503 -98.1817 281° West 394 453 24,700 1,200 Climbing Fort Worth Center
03:23PM 33.0722 -98.3233 281° West 394 453 26,100 1,200 Climbing Fort Worth Center
03:24PM 33.1111 -98.4328 293° West 389 448 27,200 960 Climbing Fort Worth Center
03:25PM 33.1600 -98.5550 296° West 398 458 28,100 900 Climbing Fort Worth Center
03:26PM 33.2111 -98.6822 296° West 409 471 29,100 900 Climbing Fort Worth Center
03:27PM 33.2639 -98.8097 296° West 423 487 29,900 900 Climbing Fort Worth Center
03:28PM 33.3189 -98.9372 297° West 428 493 30,900 840 Climbing Fort Worth Center
03:29PM 33.3714 -99.0675 296° West 428 493 31,600 900 Climbing Fort Worth Center
03:30PM 33.4239 -99.1981 296° West 428 493 32,800 960 Climbing Fort Worth Center
03:31PM 33.4742 -99.3261 295° West 428 493 33,600 600 Climbing Fort Worth Center
03:32PM 33.5283 -99.4592 296° West 428 493 34,100 780 Climbing Fort Worth Center
03:33PM 33.5803 -99.5925 295° West 428 493 35,200 900 Climbing Fort Worth Center
03:34PM 33.6325 -99.7211 296° West 428 493 35,900 600 Climbing Fort Worth Center
03:35PM 33.6842 -99.8522 295° West 428 493 36,500 540 Climbing Fort Worth Center
03:36PM 33.7358 -99.9811 296° West 428 493 37,000 480 Climbing Fort Worth Center
03:37PM 33.7853 -100.1125 294° West 428 493 37,500 300 Climbing Fort Worth Center
03:38PM 33.8386 -100.2442 296° West 428 493 37,700 240 Climbing Fort Worth Center
03:39PM 33.8900 -100.3758 295° West 428 493 38,000 120 Climbing Fort Worth Center
03:40PM 33.9450 -100.5106 296° West 433 498 38,000  Level Fort Worth Center
03:41PM 33.9958 -100.6500 294° West 443 510 38,000  Level Fort Worth Center
03:42PM 34.0544 -100.8028 295° West 449 517 38,000  Level Fort Worth Center
03:43PM 34.1089 -100.9403 296° West 449 517 38,000  Level Fort Worth Center
03:44PM 34.1614 -101.0781 295° West 449 517 38,000  Level Fort Worth Center
03:45PM 34.2136 -101.2158 295° West 444 511 38,000  Level Fort Worth Center
03:46PM 34.2636 -101.3536 294° West 449 517 38,000  Level Fort Worth Center
03:47PM 34.3175 -101.4919 295° West 449 517 38,000  Level Fort Worth Center
03:48PM 34.3800 -101.6611 294° West 453 521 38,000  Level Albuquerque Center
03:49PM 34.4322 -101.8028 294° West 457 526 38,000  Level Albuquerque Center
03:50PM 34.4842 -101.9458 294° West 459 528 38,000  Level Albuquerque Center
03:51PM 34.5467 -102.1131 294° West 454 522 38,000  Level Albuquerque Center
03:52PM 34.5972 -102.2519 294° West 451 519 38,000  Level Albuquerque Center
03:53PM 34.6486 -102.3917 294° West 451 519 38,000  Level Albuquerque Center
03:54PM 34.6994 -102.5325 294° West 453 521 38,000  Level Albuquerque Center
03:55PM 34.7522 -102.6764 294° West 455 524 38,000  Level Albuquerque Center
03:56PM 34.8031 -102.8189 294° West 456 525 38,000  Level Albuquerque Center
03:57PM 34.8547 -102.9600 294° West 454 522 38,000  Level Albuquerque Center
03:58PM 34.9072 -103.1028 294° West 455 524 38,000  Level Albuquerque Center
03:59PM 34.9578 -103.2456 293° West 455 524 38,000  Level Albuquerque Center
04:00PM 35.0172 -103.4128 294° West 457 526 38,000  Level Albuquerque Center
04:02PM 35.0683 -103.5567 293° West 458 527 38,000  Level Albuquerque Center
04:03PM 35.1183 -103.7008 293° West 459 528 38,000  Level Albuquerque Center
04:04PM 35.1689 -103.8436 293° West 456 525 38,000  Level Albuquerque Center
04:05PM 35.2164 -103.9794 293° West 458 527 38,000  Level Albuquerque Center
04:06PM 35.2658 -104.1211 293° West 456 525 38,000  Level Albuquerque Center
04:07PM 35.3147 -104.2625 293° West 452 520 38,000  Level Albuquerque Center
04:08PM 35.3703 -104.4319 292° West 453 521 38,000  Level Albuquerque Center
04:09PM 35.4197 -104.5747 293° West 453 521 38,000  Level Albuquerque Center
04:10PM 35.4683 -104.7183 293° West 453 521 38,000  Level Albuquerque Center
04:11PM 35.5164 -104.8614 292° West 451 519 38,000  Level Albuquerque Center
04:12PM 35.5656 -105.0075 293° West 457 526 38,000  Level Albuquerque Center
04:13PM 35.6122 -105.1492 292° West 446 513 38,000  Level Albuquerque Center
04:14PM 35.6594 -105.2903 292° West 443 510 38,000  Level Albuquerque Center
04:15PM 35.7158 -105.4567 293° West 447 514 38,000  Level Albuquerque Center
04:16PM 35.7558 -105.5778 292° West 447 514 38,000  Level Albuquerque Center
04:17PM 35.8019 -105.7167 292° West 442 509 38,000  Level Albuquerque Center
04:18PM 35.8564 -105.8819 292° West 438 504 38,000  Level Albuquerque Center
04:19PM 35.9006 -106.0181 292° West 432 497 38,000  Level Albuquerque Center
04:20PM 35.9450 -106.1533 292° West 428 493 38,000  Level Albuquerque Center
04:21PM 35.9892 -106.2903 292° West 430 495 38,000  Level Albuquerque Center
04:22PM 36.0331 -106.4239 292° West 425 489 38,000  Level Albuquerque Center
04:23PM 36.0753 -106.5567 292° West 420 483 38,000  Level Albuquerque Center
04:24PM 36.1256 -106.7153 291° West 416 479 38,000  Level Albuquerque Center
04:25PM 36.1669 -106.8469 291° West 414 476 38,000  Level Albuquerque Center
04:26PM 36.2119 -106.9897 291° West 416 479 38,000  Level Albuquerque Center
04:27PM 36.2514 -107.1156 291° West 412 474 38,000  Level Albuquerque Center
04:28PM 36.2983 -107.2647 291° West 416 479 38,000  Level Albuquerque Center
04:29PM 36.3397 -107.3972 291° West 426 490 38,000  Level Albuquerque Center
04:30PM 36.3878 -107.5517 291° West 431 496 38,000  Level Albuquerque Center
04:31PM 36.4019 -107.5947 292° West 430 495 38,000  Level Denver Center
04:32PM 36.4403 -107.7269 290° West 428 493 38,000  Level Denver Center
04:33PM 36.4872 -107.8786 291° West 425 489 38,000  Level Denver Center
04:34PM 36.5275 -108.0111 291° West 428 493 38,000  Level Denver Center
04:35PM 36.5739 -108.1656 291° West 428 493 38,000  Level Denver Center
04:36PM 36.6142 -108.2950 291° West 424 488 38,000  Level Denver Center
04:37PM 36.6578 -108.4447 290° West 417 480 38,000  Level Denver Center
04:38PM 36.6958 -108.5717 291° West 412 474 38,000  Level Denver Center
04:39PM 36.7394 -108.7194 290° West 410 472 38,000  Level Denver Center
04:40PM 36.7761 -108.8422 290° West 401 461 38,000  Level Denver Center
04:41PM 36.8131 -108.9686 290° West 406 467 38,000  Level Denver Center
04:42PM 36.8558 -109.1150 290° West 403 464 38,000  Level Denver Center
04:43PM 36.8917 -109.2400 290° West 402 463 38,000  Level Denver Center
04:44PM 36.9344 -109.3869 290° West 404 465 38,000  Level Denver Center
04:45PM 36.9706 -109.5147 290° West 407 468 38,000  Level Denver Center
04:46PM 37.0125 -109.6619 290° West 406 467 38,000  Level Denver Center
04:47PM 37.0497 -109.7878 290° West 405 466 38,000  Level Denver Center
04:48PM 37.0908 -109.9336 290° West 399 459 38,000  Level Denver Center
04:49PM 37.1322 -110.0789 290° West 397 457 38,000  Level Denver Center
04:50PM 37.1725 -110.2228 289° West 399 459 38,000  Level Denver Center
04:51PM 37.2011 -110.3278 289° West 399 459 38,000  Level Denver Center
04:53PM 37.2447 -110.4858 289° West 399 459 38,000  Level Denver Center
04:54PM 37.2822 -110.6181 290° West 403 464 38,000  Level Denver Center
04:55PM 37.3339 -110.8053 289° West 406 467 38,000  Level Denver Center
04:56PM 37.3775 -110.9667 289° West 407 468 38,000  Level Denver Center
04:57PM 37.4139 -111.1008 289° West 407 468 38,000  Level Denver Center
04:58PM 37.4508 -111.2342 289° West 405 466 38,000  Level Denver Center
04:59PM 37.4789 -111.3425 288° West 405 466 38,000  Level Denver Center
05:00PM 37.5225 -111.5036 289° West 406 467 38,000  Level Denver Center
05:01PM 37.5575 -111.6381 288° West 405 466 38,000  Level Denver Center
05:02PM 37.5939 -111.7717 289° West 406 467 38,000  Level Denver Center
05:03PM 37.6208 -111.8797 288° West 407 468 38,000  Level Salt Lake Center
05:04PM 37.6644 -112.0411 289° West 407 468 38,000  Level Salt Lake Center
05:05PM 37.6992 -112.1739 288° West 403 464 38,000  Level Salt Lake Center
05:06PM 37.7333 -112.3069 288° West 400 460 38,000  Level Salt Lake Center
05:07PM 37.7678 -112.4392 288° West 399 459 38,000  Level Salt Lake Center
05:08PM 37.8014 -112.5717 288° West 400 460 38,000  Level Salt Lake Center
05:09PM 37.8361 -112.7042 288° West 402 463 38,000  Level Salt Lake Center
05:10PM 37.8697 -112.8369 288° West 402 463 38,000  Level Salt Lake Center
05:11PM 37.9094 -112.9961 288° West 401 461 38,000  Level Salt Lake Center
05:12PM 37.9428 -113.1297 288° West 402 463 38,000  Level Salt Lake Center
05:13PM 37.9756 -113.2628 287° West 400 460 38,000  Level Salt Lake Center
05:14PM 38.0092 -113.3969 288° West 401 461 38,000  Level Salt Lake Center
05:15PM 38.0431 -113.5308 288° West 401 461 38,000  Level Salt Lake Center
05:16PM 38.0753 -113.6647 287° West 400 460 38,000  Level Salt Lake Center
05:17PM 38.1144 -113.8228 288° West 394 453 38,000  Level Salt Lake Center
05:18PM 38.1464 -113.9544 287° West 393 452 38,000  Level Salt Lake Center
05:19PM 38.1772 -114.0856 287° West 390 449 38,000  Level Salt Lake Center
05:20PM 38.2094 -114.2172 287° West 390 449 38,000  Level Salt Lake Center
05:21PM 38.2400 -114.3472 287° West 387 445 38,000  Level Salt Lake Center
05:22PM 38.2458 -114.4839 273° West 389 448 38,000  Level Salt Lake Center
05:23PM 38.2367 -114.6192 265° West 387 445 38,000  Level Salt Lake Center
05:25PM 38.2283 -114.7561 266° West 388 447 38,000  Level Salt Lake Center
05:26PM 38.2183 -114.9172 266° West 384 442 38,000  Level Salt Lake Center
05:27PM 38.2097 -115.0531 265° West 386 444 38,000  Level Salt Lake Center
05:28PM 38.2011 -115.1889 265° West 387 445 38,000  Level Salt Lake Center
05:29PM 38.1925 -115.3233 265° West 388 447 38,000  Level Salt Lake Center
05:30PM 38.1828 -115.4600 265° West 388 447 38,000  Level Salt Lake Center
05:31PM 38.1739 -115.5983 265° West 393 452 38,000  Level Salt Lake Center
05:32PM 38.1619 -115.7636 265° West 392 451 38,000  Level Salt Lake Center
05:33PM 38.1522 -115.9017 265° West 393 452 38,000  Level Salt Lake Center
05:34PM 38.1422 -116.0400 265° West 394 453 38,000  Level Salt Lake Center
05:35PM 38.1319 -116.1767 265° West 389 448 38,000  Level Salt Lake Center
05:36PM 38.1219 -116.3139 265° West 391 450 38,000  Level Salt Lake Center
05:37PM 38.1156 -116.3986 265° West 394 453 38,000  Level Oakland Center
05:37PM 38.1106 -116.4547 264° West 397 457 38,000  Level Salt Lake Center
05:38PM 38.1000 -116.5931 265° West 396 456 38,000  Level Salt Lake Center
05:39PM 38.0892 -116.7314 264° West 394 453 38,000  Level Salt Lake Center
05:40PM 38.0761 -116.8981 264° West 394 453 38,000  Level Salt Lake Center
05:41PM 38.0694 -116.9839 264° West 398 458 38,000  Level Oakland Center
05:42PM 38.0583 -117.1244 264° West 396 456 38,000  Level Oakland Center
05:42PM 38.0533 -117.1817 264° West 395 455 38,000  Level Salt Lake Center
05:43PM 38.0464 -117.2672 264° West 393 452 38,000  Level Oakland Center
05:44PM 38.0342 -117.4081 264° West 395 455 38,000  Level Oakland Center
05:45PM 38.0228 -117.5453 264° West 391 450 38,000  Level Oakland Center
05:46PM 38.0114 -117.6825 264° West 390 449 38,000  Level Oakland Center
05:47PM 37.9989 -117.8203 263° West 392 451 38,000  Level Oakland Center
05:48PM 37.9839 -117.9567 262° West 392 451 38,000  Level Oakland Center
05:49PM 37.9694 -118.0919 262° West 389 448 38,000  Level Oakland Center
05:50PM 37.9544 -118.2289 262° West 391 450 38,000  Level Oakland Center
05:51PM 37.9389 -118.3672 262° West 395 455 38,000  Level Oakland Center
05:52PM 37.9233 -118.5033 262° West 392 451 38,000 -480 Level Oakland Center
05:53PM 37.9069 -118.6714 263° West 400 460 37,100 -1,020 Descending Oakland Center
05:54PM 37.8917 -118.8219 263° West 427 491 36,000 -600 Descending Oakland Center
05:55PM 37.8722 -118.9697 261° West 425 489 36,000  Level Oakland Center
05:56PM 37.8581 -119.1086 263° West 410 472 36,000  Level Oakland Center
05:57PM 37.8392 -119.2483 260° West 403 464 36,000  Level Oakland Center
05:58PM 37.8233 -119.3864 262° West 399 459 36,000  Level Oakland Center
05:59PM 37.8081 -119.5242 262° West 395 455 36,000 -240 Level Oakland Center
06:00PM 37.7914 -119.6642 261° West 401 461 35,600 -1,140 Descending Oakland Center
06:01PM 37.7739 -119.8086 261° West 412 474 33,800 -1,740 Descending Oakland Center
06:02PM 37.7567 -119.9539 262° West 416 479 32,100 -600 Descending Oakland Center
06:04PM 37.7172 -120.2633 261° West 404 465 32,000 -60 Descending Oakland Center
06:05PM 37.6994 -120.4064 261° West 409 471 32,000 -1,140 Level Oakland Center
06:06PM 37.6814 -120.5503 261° West 415 478 29,800 -2,340 Descending Oakland Center
06:07PM 37.6667 -120.6333 257° West 427 491 28,400 -2,700 Descending Northern Cal TRACON
06:08PM 37.6500 -120.7833 262° West 425 489 25,700 -2,640 Descending Northern Cal TRACON
06:09PM 37.6333 -120.9333 262° West 413 475 23,200 -2,520 Descending Northern Cal TRACON
06:10PM 37.6167 -121.0500 260° West 396 456 20,700 -2,700 Descending Northern Cal TRACON
06:11PM 37.6000 -121.2000 262° West 383 441 17,800 -2,700 Descending Northern Cal TRACON
06:12PM 37.5833 -121.3167 260° West 368 423 15,300 -2,400 Descending Northern Cal TRACON
06:13PM 37.5667 -121.4333 260° West 355 409 13,000 -2,100 Descending Northern Cal TRACON
06:14PM 37.5667 -121.5667 270° West 347 399 11,100 -1,020 Descending Northern Cal TRACON
06:15PM 37.5333 -121.6667 247° West 304 350 11,000 -600 Descending Northern Cal TRACON
06:16PM 37.5167 -121.7667 258° West 298 343 9,900 -1,380 Descending Northern Cal TRACON
06:17PM 37.4833 -121.8667 247° West 291 335 8,200 -1,440 Descending Northern Cal TRACON
06:18PM 37.4667 -121.9667 258° West 268 308 7,100 -1,140 Descending Northern Cal TRACON
06:19PM 37.5000 -122.0333 302° West 233 268 6,000 -840 Descending Northern Cal TRACON
06:20PM 37.5333 -122.1000 302° West 188 216 5,500 -960 Descending Northern Cal TRACON
06:20PM 37.5347 -122.1297 273° West 200 230 4,500 -1,560 Descending Oakland Center
06:21PM 37.5556 -122.1983 291° West 203 234 3,000 -1,500 Descending Oakland Center